sensor_id;sensor_type;location;lat;lon;timestamp;temperature;humidity
46336;DHT22;31365;48.858;8.530;2022-10-17T00:03:11;14.10;99.90
46336;DHT22;31365;48.858;8.530;2022-10-17T00:05:41;14.10;99.90
46336;DHT22;31365;48.858;8.530;2022-10-17T00:08:11;14.00;99.90
46336;DHT22;31365;48.858;8.530;2022-10-17T00:10:41;13.90;99.90
46336;DHT22;31365;48.858;8.530;2022-10-17T00:13:10;13.90;99.90
46336;DHT22;31365;48.858;8.530;2022-10-17T00:15:42;13.80;99.90
46336;DHT22;31365;48.858;8.530;2022-10-17T00:18:12;13.80;99.90
46336;DHT22;31365;48.858;8.530;2022-10-17T00:20:41;13.80;99.90
46336;DHT22;31365;48.858;8.530;2022-10-17T00:23:09;13.80;99.90
46336;DHT22;31365;48.858;8.530;2022-10-17T00:25:38;13.70;99.90
46336;DHT22;31365;48.858;8.530;2022-10-17T00:28:08;13.70;99.90
46336;DHT22;31365;48.858;8.530;2022-10-17T00:30:36;13.70;99.90
46336;DHT22;31365;48.858;8.530;2022-10-17T00:33:06;13.70;99.90
46336;DHT22;31365;48.858;8.530;2022-10-17T00:35:36;13.60;99.90
46336;DHT22;31365;48.858;8.530;2022-10-17T00:38:04;13.60;99.90
46336;DHT22;31365;48.858;8.530;2022-10-17T00:40:32;13.60;99.90
46336;DHT22;31365;48.858;8.530;2022-10-17T00:43:00;13.60;99.90
46336;DHT22;31365;48.858;8.530;2022-10-17T00:45:30;13.60;99.90
46336;DHT22;31365;48.858;8.530;2022-10-17T00:48:02;13.50;99.90
46336;DHT22;31365;48.858;8.530;2022-10-17T00:50:37;13.60;99.90
46336;DHT22;31365;48.858;8.530;2022-10-17T00:53:07;13.50;99.90
46336;DHT22;31365;48.858;8.530;2022-10-17T00:55:38;13.50;99.90
46336;DHT22;31365;48.858;8.530;2022-10-17T00:58:10;13.50;99.90
46336;DHT22;31365;48.858;8.530;2022-10-17T01:00:41;13.40;99.90
46336;DHT22;31365;48.858;8.530;2022-10-17T01:03:11;13.40;99.90
46336;DHT22;31365;48.858;8.530;2022-10-17T01:05:40;13.50;99.90
46336;DHT22;31365;48.858;8.530;2022-10-17T01:08:09;13.50;99.90
46336;DHT22;31365;48.858;8.530;2022-10-17T01:10:44;13.50;99.90
46336;DHT22;31365;48.858;8.530;2022-10-17T01:13:25;13.60;99.90
46336;DHT22;31365;48.858;8.530;2022-10-17T01:16:08;13.50;99.90
46336;DHT22;31365;48.858;8.530;2022-10-17T01:18:53;13.50;99.90
46336;DHT22;31365;48.858;8.530;2022-10-17T01:21:43;13.50;99.90
46336;DHT22;31365;48.858;8.530;2022-10-17T01:25:03;13.50;99.90
46336;DHT22;31365;48.858;8.530;2022-10-17T01:28:04;13.50;99.90
46336;DHT22;31365;48.858;8.530;2022-10-17T01:31:07;13.50;99.90
46336;DHT22;31365;48.858;8.530;2022-10-17T01:33:47;13.60;99.90
46336;DHT22;31365;48.858;8.530;2022-10-17T01:36:32;13.50;99.90
46336;DHT22;31365;48.858;8.530;2022-10-17T01:39:12;13.40;99.90
46336;DHT22;31365;48.858;8.530;2022-10-17T01:41:53;13.40;99.90
46336;DHT22;31365;48.858;8.530;2022-10-17T01:44:31;13.40;99.90
46336;DHT22;31365;48.858;8.530;2022-10-17T01:47:09;13.40;99.90
46336;DHT22;31365;48.858;8.530;2022-10-17T01:49:42;13.40;99.90
46336;DHT22;31365;48.858;8.530;2022-10-17T01:52:14;13.40;99.90
46336;DHT22;31365;48.858;8.530;2022-10-17T01:54:49;13.40;99.90
46336;DHT22;31365;48.858;8.530;2022-10-17T01:57:25;13.40;99.90
46336;DHT22;31365;48.858;8.530;2022-10-17T01:59:59;13.40;99.90
46336;DHT22;31365;48.858;8.530;2022-10-17T02:02:40;13.40;99.90
46336;DHT22;31365;48.858;8.530;2022-10-17T02:05:12;13.40;99.90
46336;DHT22;31365;48.858;8.530;2022-10-17T02:07:41;13.40;99.90
46336;DHT22;31365;48.858;8.530;2022-10-17T02:10:14;13.40;99.90
46336;DHT22;31365;48.858;8.530;2022-10-17T02:12:48;13.50;99.90
46336;DHT22;31365;48.858;8.530;2022-10-17T02:15:50;13.40;99.90
46336;DHT22;31365;48.858;8.530;2022-10-17T02:18:45;13.40;99.90
46336;DHT22;31365;48.858;8.530;2022-10-17T02:21:27;13.30;99.90
46336;DHT22;31365;48.858;8.530;2022-10-17T02:24:08;13.40;99.90
46336;DHT22;31365;48.858;8.530;2022-10-17T02:26:51;13.30;99.90
46336;DHT22;31365;48.858;8.530;2022-10-17T02:29:26;13.40;99.90
46336;DHT22;31365;48.858;8.530;2022-10-17T02:32:05;13.30;99.90
46336;DHT22;31365;48.858;8.530;2022-10-17T02:34:39;13.20;99.90
46336;DHT22;31365;48.858;8.530;2022-10-17T02:37:12;13.20;99.90
46336;DHT22;31365;48.858;8.530;2022-10-17T02:39:46;13.20;99.90
46336;DHT22;31365;48.858;8.530;2022-10-17T02:42:19;13.20;99.90
46336;DHT22;31365;48.858;8.530;2022-10-17T02:44:50;13.30;99.90
46336;DHT22;31365;48.858;8.530;2022-10-17T02:47:24;13.20;99.90
46336;DHT22;31365;48.858;8.530;2022-10-17T02:50:01;13.20;99.90
46336;DHT22;31365;48.858;8.530;2022-10-17T02:52:35;13.20;99.90
46336;DHT22;31365;48.858;8.530;2022-10-17T02:55:13;13.10;99.90
46336;DHT22;31365;48.858;8.530;2022-10-17T02:57:48;13.10;99.90
46336;DHT22;31365;48.858;8.530;2022-10-17T03:00:21;13.10;99.90
46336;DHT22;31365;48.858;8.530;2022-10-17T03:02:52;13.00;99.90
46336;DHT22;31365;48.858;8.530;2022-10-17T03:05:25;13.10;99.90
46336;DHT22;31365;48.858;8.530;2022-10-17T03:07:55;13.00;99.90
46336;DHT22;31365;48.858;8.530;2022-10-17T03:10:24;13.10;99.90
46336;DHT22;31365;48.858;8.530;2022-10-17T03:12:53;13.10;99.90
46336;DHT22;31365;48.858;8.530;2022-10-17T03:15:24;13.10;99.90
46336;DHT22;31365;48.858;8.530;2022-10-17T03:17:53;13.00;99.90
46336;DHT22;31365;48.858;8.530;2022-10-17T03:20:23;13.10;99.90
46336;DHT22;31365;48.858;8.530;2022-10-17T03:22:52;13.00;99.90
46336;DHT22;31365;48.858;8.530;2022-10-17T03:25:21;13.00;99.90
46336;DHT22;31365;48.858;8.530;2022-10-17T03:27:49;13.00;99.90
46336;DHT22;31365;48.858;8.530;2022-10-17T03:30:18;13.00;99.90
46336;DHT22;31365;48.858;8.530;2022-10-17T03:32:47;13.10;99.90
46336;DHT22;31365;48.858;8.530;2022-10-17T03:35:16;13.10;99.90
46336;DHT22;31365;48.858;8.530;2022-10-17T03:37:49;13.10;99.90
46336;DHT22;31365;48.858;8.530;2022-10-17T03:40:19;13.10;99.90
46336;DHT22;31365;48.858;8.530;2022-10-17T03:42:48;13.10;99.90
46336;DHT22;31365;48.858;8.530;2022-10-17T03:45:17;13.10;99.90
46336;DHT22;31365;48.858;8.530;2022-10-17T03:47:46;13.10;99.90
46336;DHT22;31365;48.858;8.530;2022-10-17T03:50:15;13.10;99.90
46336;DHT22;31365;48.858;8.530;2022-10-17T03:52:45;13.00;99.90
46336;DHT22;31365;48.858;8.530;2022-10-17T03:55:16;13.00;99.90
46336;DHT22;31365;48.858;8.530;2022-10-17T03:57:46;13.00;99.90
46336;DHT22;31365;48.858;8.530;2022-10-17T04:00:17;13.00;99.90
46336;DHT22;31365;48.858;8.530;2022-10-17T04:02:52;13.00;99.90
46336;DHT22;31365;48.858;8.530;2022-10-17T04:05:21;13.00;99.90
46336;DHT22;31365;48.858;8.530;2022-10-17T04:07:49;13.00;99.90
46336;DHT22;31365;48.858;8.530;2022-10-17T04:10:25;13.00;99.90
46336;DHT22;31365;48.858;8.530;2022-10-17T04:12:53;13.00;99.90
46336;DHT22;31365;48.858;8.530;2022-10-17T04:15:22;13.00;99.90
46336;DHT22;31365;48.858;8.530;2022-10-17T04:17:50;13.00;99.90
46336;DHT22;31365;48.858;8.530;2022-10-17T04:20:19;13.10;99.90
46336;DHT22;31365;48.858;8.530;2022-10-17T04:22:48;13.10;99.90
46336;DHT22;31365;48.858;8.530;2022-10-17T04:25:17;13.10;99.90
46336;DHT22;31365;48.858;8.530;2022-10-17T04:27:48;13.30;99.90
46336;DHT22;31365;48.858;8.530;2022-10-17T04:30:18;13.10;99.90
46336;DHT22;31365;48.858;8.530;2022-10-17T04:32:46;13.20;99.90
46336;DHT22;31365;48.858;8.530;2022-10-17T04:35:20;13.20;99.90
46336;DHT22;31365;48.858;8.530;2022-10-17T04:37:59;13.20;99.90
46336;DHT22;31365;48.858;8.530;2022-10-17T04:40:27;13.20;99.90
46336;DHT22;31365;48.858;8.530;2022-10-17T04:42:57;13.30;99.90
46336;DHT22;31365;48.858;8.530;2022-10-17T04:45:33;13.30;99.90
46336;DHT22;31365;48.858;8.530;2022-10-17T04:48:04;13.40;99.90
46336;DHT22;31365;48.858;8.530;2022-10-17T04:50:33;13.30;99.90
46336;DHT22;31365;48.858;8.530;2022-10-17T04:53:24;13.30;99.90
46336;DHT22;31365;48.858;8.530;2022-10-17T04:55:53;13.30;99.90
46336;DHT22;31365;48.858;8.530;2022-10-17T04:58:23;13.40;99.90
46336;DHT22;31365;48.858;8.530;2022-10-17T05:00:51;13.30;99.90
46336;DHT22;31365;48.858;8.530;2022-10-17T05:03:24;13.30;99.90
46336;DHT22;31365;48.858;8.530;2022-10-17T05:05:52;13.20;99.90
46336;DHT22;31365;48.858;8.530;2022-10-17T05:08:22;13.20;99.90
46336;DHT22;31365;48.858;8.530;2022-10-17T05:10:51;13.20;99.90
46336;DHT22;31365;48.858;8.530;2022-10-17T05:13:19;13.20;99.90
46336;DHT22;31365;48.858;8.530;2022-10-17T05:15:49;13.10;99.90
46336;DHT22;31365;48.858;8.530;2022-10-17T05:18:17;13.10;99.90
46336;DHT22;31365;48.858;8.530;2022-10-17T05:20:46;13.00;99.90
46336;DHT22;31365;48.858;8.530;2022-10-17T05:23:15;13.00;99.90
46336;DHT22;31365;48.858;8.530;2022-10-17T05:25:43;13.00;99.90
46336;DHT22;31365;48.858;8.530;2022-10-17T05:28:11;13.20;99.90
46336;DHT22;31365;48.858;8.530;2022-10-17T05:30:41;13.00;99.90
46336;DHT22;31365;48.858;8.530;2022-10-17T05:33:11;13.00;99.90
46336;DHT22;31365;48.858;8.530;2022-10-17T05:35:40;12.90;99.90
46336;DHT22;31365;48.858;8.530;2022-10-17T05:38:09;12.90;99.90
46336;DHT22;31365;48.858;8.530;2022-10-17T05:40:40;12.90;99.90
46336;DHT22;31365;48.858;8.530;2022-10-17T05:43:09;12.90;99.90
46336;DHT22;31365;48.858;8.530;2022-10-17T05:45:38;12.90;99.90
46336;DHT22;31365;48.858;8.530;2022-10-17T05:48:12;12.80;99.90
46336;DHT22;31365;48.858;8.530;2022-10-17T05:50:40;12.90;99.90
46336;DHT22;31365;48.858;8.530;2022-10-17T05:53:14;12.80;99.90
46336;DHT22;31365;48.858;8.530;2022-10-17T05:55:54;12.80;99.90
46336;DHT22;31365;48.858;8.530;2022-10-17T05:58:24;12.80;99.90
46336;DHT22;31365;48.858;8.530;2022-10-17T06:01:28;12.80;99.90
46336;DHT22;31365;48.858;8.530;2022-10-17T06:03:58;12.80;99.90
46336;DHT22;31365;48.858;8.530;2022-10-17T06:06:26;12.90;99.90
46336;DHT22;31365;48.858;8.530;2022-10-17T06:08:54;12.90;99.90
46336;DHT22;31365;48.858;8.530;2022-10-17T06:11:29;12.90;99.90
46336;DHT22;31365;48.858;8.530;2022-10-17T06:13:58;12.90;99.90
46336;DHT22;31365;48.858;8.530;2022-10-17T06:16:28;12.90;99.90
46336;DHT22;31365;48.858;8.530;2022-10-17T06:18:59;13.00;99.90
46336;DHT22;31365;48.858;8.530;2022-10-17T06:21:28;13.00;99.90
46336;DHT22;31365;48.858;8.530;2022-10-17T06:24:07;13.10;99.90
46336;DHT22;31365;48.858;8.530;2022-10-17T06:26:39;13.10;99.90
46336;DHT22;31365;48.858;8.530;2022-10-17T06:29:09;13.20;99.90
46336;DHT22;31365;48.858;8.530;2022-10-17T06:31:49;13.20;99.90
46336;DHT22;31365;48.858;8.530;2022-10-17T06:34:20;13.20;99.90
46336;DHT22;31365;48.858;8.530;2022-10-17T06:36:48;13.20;99.90
46336;DHT22;31365;48.858;8.530;2022-10-17T06:39:18;13.30;99.90
46336;DHT22;31365;48.858;8.530;2022-10-17T06:41:55;13.40;99.90
46336;DHT22;31365;48.858;8.530;2022-10-17T06:44:38;13.40;99.90
46336;DHT22;31365;48.858;8.530;2022-10-17T06:47:21;13.50;99.90
46336;DHT22;31365;48.858;8.530;2022-10-17T06:49:56;13.60;99.90
46336;DHT22;31365;48.858;8.530;2022-10-17T06:52:39;13.70;99.90
46336;DHT22;31365;48.858;8.530;2022-10-17T06:55:27;13.90;99.90
46336;DHT22;31365;48.858;8.530;2022-10-17T06:58:12;14.00;99.90
46336;DHT22;31365;48.858;8.530;2022-10-17T07:00:57;14.10;99.90
46336;DHT22;31365;48.858;8.530;2022-10-17T07:03:28;14.20;99.90
46336;DHT22;31365;48.858;8.530;2022-10-17T07:05:58;14.40;99.90
46336;DHT22;31365;48.858;8.530;2022-10-17T07:08:27;14.50;99.90
46336;DHT22;31365;48.858;8.530;2022-10-17T07:10:58;14.50;99.90
46336;DHT22;31365;48.858;8.530;2022-10-17T07:13:36;14.70;99.90
46336;DHT22;31365;48.858;8.530;2022-10-17T07:16:06;14.80;99.90
46336;DHT22;31365;48.858;8.530;2022-10-17T07:18:37;14.90;99.90
46336;DHT22;31365;48.858;8.530;2022-10-17T07:21:07;15.00;99.90
46336;DHT22;31365;48.858;8.530;2022-10-17T07:23:38;15.00;99.90
46336;DHT22;31365;48.858;8.530;2022-10-17T07:26:09;15.10;99.90
46336;DHT22;31365;48.858;8.530;2022-10-17T07:28:43;15.20;99.90
46336;DHT22;31365;48.858;8.530;2022-10-17T07:31:23;15.30;99.90
46336;DHT22;31365;48.858;8.530;2022-10-17T07:33:52;15.40;99.90
46336;DHT22;31365;48.858;8.530;2022-10-17T07:36:21;15.40;99.90
46336;DHT22;31365;48.858;8.530;2022-10-17T07:38:50;15.60;99.90
46336;DHT22;31365;48.858;8.530;2022-10-17T07:41:19;15.70;99.90
46336;DHT22;31365;48.858;8.530;2022-10-17T07:43:49;15.80;99.90
46336;DHT22;31365;48.858;8.530;2022-10-17T07:46:21;15.90;99.90
46336;DHT22;31365;48.858;8.530;2022-10-17T07:48:50;16.00;99.90
46336;DHT22;31365;48.858;8.530;2022-10-17T07:51:21;16.10;99.90
46336;DHT22;31365;48.858;8.530;2022-10-17T07:53:49;16.10;99.90
46336;DHT22;31365;48.858;8.530;2022-10-17T07:56:18;16.20;99.90
46336;DHT22;31365;48.858;8.530;2022-10-17T07:58:50;16.20;99.90
46336;DHT22;31365;48.858;8.530;2022-10-17T08:01:20;16.30;99.90
46336;DHT22;31365;48.858;8.530;2022-10-17T08:03:48;16.40;99.90
46336;DHT22;31365;48.858;8.530;2022-10-17T08:06:17;16.40;99.90
46336;DHT22;31365;48.858;8.530;2022-10-17T08:08:47;16.40;99.90
46336;DHT22;31365;48.858;8.530;2022-10-17T08:11:15;16.50;99.90
46336;DHT22;31365;48.858;8.530;2022-10-17T08:13:44;16.60;99.90
46336;DHT22;31365;48.858;8.530;2022-10-17T08:16:12;16.60;99.90
46336;DHT22;31365;48.858;8.530;2022-10-17T08:18:42;16.80;99.90
46336;DHT22;31365;48.858;8.530;2022-10-17T08:21:11;16.90;99.90
46336;DHT22;31365;48.858;8.530;2022-10-17T08:23:40;17.00;99.90
46336;DHT22;31365;48.858;8.530;2022-10-17T08:26:10;17.00;99.90
46336;DHT22;31365;48.858;8.530;2022-10-17T08:28:42;17.10;99.90
46336;DHT22;31365;48.858;8.530;2022-10-17T08:31:14;17.20;99.90
46336;DHT22;31365;48.858;8.530;2022-10-17T08:33:45;17.20;99.90
46336;DHT22;31365;48.858;8.530;2022-10-17T08:36:16;17.30;99.90
46336;DHT22;31365;48.858;8.530;2022-10-17T08:38:46;17.40;99.90
46336;DHT22;31365;48.858;8.530;2022-10-17T08:41:33;17.50;99.90
46336;DHT22;31365;48.858;8.530;2022-10-17T08:44:18;17.60;99.90
46336;DHT22;31365;48.858;8.530;2022-10-17T08:47:01;17.70;99.90
46336;DHT22;31365;48.858;8.530;2022-10-17T08:49:39;17.90;99.90
46336;DHT22;31365;48.858;8.530;2022-10-17T08:52:20;18.00;99.90
46336;DHT22;31365;48.858;8.530;2022-10-17T08:54:56;18.10;99.90
46336;DHT22;31365;48.858;8.530;2022-10-17T08:57:26;18.30;99.90
46336;DHT22;31365;48.858;8.530;2022-10-17T08:59:55;18.30;99.90
46336;DHT22;31365;48.858;8.530;2022-10-17T09:02:41;18.40;99.90
46336;DHT22;31365;48.858;8.530;2022-10-17T09:05:30;18.50;99.90
46336;DHT22;31365;48.858;8.530;2022-10-17T09:08:15;18.70;99.90
46336;DHT22;31365;48.858;8.530;2022-10-17T09:10:56;18.90;99.90
46336;DHT22;31365;48.858;8.530;2022-10-17T09:13:36;18.90;99.90
46336;DHT22;31365;48.858;8.530;2022-10-17T09:16:37;19.10;99.90
46336;DHT22;31365;48.858;8.530;2022-10-17T09:19:23;19.20;99.90
46336;DHT22;31365;48.858;8.530;2022-10-17T09:21:58;19.30;99.90
46336;DHT22;31365;48.858;8.530;2022-10-17T09:24:36;19.40;99.90
46336;DHT22;31365;48.858;8.530;2022-10-17T09:27:16;19.60;99.90
46336;DHT22;31365;48.858;8.530;2022-10-17T09:30:12;19.70;99.90
46336;DHT22;31365;48.858;8.530;2022-10-17T09:33:10;19.80;99.90
46336;DHT22;31365;48.858;8.530;2022-10-17T09:36:03;20.00;99.90
46336;DHT22;31365;48.858;8.530;2022-10-17T09:38:38;20.00;99.90
46336;DHT22;31365;48.858;8.530;2022-10-17T09:41:16;20.10;99.90
46336;DHT22;31365;48.858;8.530;2022-10-17T09:44:16;20.20;99.90
46336;DHT22;31365;48.858;8.530;2022-10-17T09:47:17;20.30;99.90
46336;DHT22;31365;48.858;8.530;2022-10-17T09:49:51;20.30;99.90
46336;DHT22;31365;48.858;8.530;2022-10-17T09:52:24;20.40;99.90
46336;DHT22;31365;48.858;8.530;2022-10-17T09:54:58;20.40;99.90
46336;DHT22;31365;48.858;8.530;2022-10-17T09:57:51;20.50;99.90
46336;DHT22;31365;48.858;8.530;2022-10-17T10:00:23;20.50;99.90
46336;DHT22;31365;48.858;8.530;2022-10-17T10:03:10;20.60;99.90
46336;DHT22;31365;48.858;8.530;2022-10-17T10:05:58;20.80;99.90
46336;DHT22;31365;48.858;8.530;2022-10-17T10:08:30;20.90;99.90
46336;DHT22;31365;48.858;8.530;2022-10-17T10:11:04;21.10;99.90
46336;DHT22;31365;48.858;8.530;2022-10-17T10:13:39;21.30;99.90
46336;DHT22;31365;48.858;8.530;2022-10-17T10:16:17;21.50;99.90
46336;DHT22;31365;48.858;8.530;2022-10-17T10:18:50;21.80;99.90
46336;DHT22;31365;48.858;8.530;2022-10-17T10:21:24;22.10;99.90
46336;DHT22;31365;48.858;8.530;2022-10-17T10:24:04;22.50;99.90
46336;DHT22;31365;48.858;8.530;2022-10-17T10:26:41;22.90;99.90
46336;DHT22;31365;48.858;8.530;2022-10-17T10:29:25;23.30;99.90
46336;DHT22;31365;48.858;8.530;2022-10-17T10:32:06;23.60;99.90
46336;DHT22;31365;48.858;8.530;2022-10-17T10:34:51;23.90;99.90
46336;DHT22;31365;48.858;8.530;2022-10-17T10:37:25;24.20;99.90
46336;DHT22;31365;48.858;8.530;2022-10-17T10:39:57;24.30;99.90
46336;DHT22;31365;48.858;8.530;2022-10-17T10:42:31;24.40;99.90
46336;DHT22;31365;48.858;8.530;2022-10-17T10:45:12;24.90;99.90
46336;DHT22;31365;48.858;8.530;2022-10-17T10:48:11;25.30;99.90
46336;DHT22;31365;48.858;8.530;2022-10-17T10:50:49;25.70;99.90
46336;DHT22;31365;48.858;8.530;2022-10-17T10:53:30;26.10;99.90
46336;DHT22;31365;48.858;8.530;2022-10-17T10:56:10;26.40;99.90
46336;DHT22;31365;48.858;8.530;2022-10-17T10:58:55;26.60;99.90
46336;DHT22;31365;48.858;8.530;2022-10-17T11:01:31;27.00;99.90
46336;DHT22;31365;48.858;8.530;2022-10-17T11:04:16;27.40;99.90
46336;DHT22;31365;48.858;8.530;2022-10-17T11:06:58;27.90;99.90
46336;DHT22;31365;48.858;8.530;2022-10-17T11:09:44;28.40;99.90
46336;DHT22;31365;48.858;8.530;2022-10-17T11:12:20;29.00;99.90
46336;DHT22;31365;48.858;8.530;2022-10-17T11:14:55;29.50;99.90
46336;DHT22;31365;48.858;8.530;2022-10-17T11:17:35;29.90;99.90
46336;DHT22;31365;48.858;8.530;2022-10-17T11:20:13;30.10;99.90
46336;DHT22;31365;48.858;8.530;2022-10-17T11:22:51;30.50;99.90
46336;DHT22;31365;48.858;8.530;2022-10-17T11:25:29;31.00;99.90
46336;DHT22;31365;48.858;8.530;2022-10-17T11:28:00;31.40;99.90
46336;DHT22;31365;48.858;8.530;2022-10-17T11:30:34;32.20;99.90
46336;DHT22;31365;48.858;8.530;2022-10-17T11:33:14;32.60;99.90
46336;DHT22;31365;48.858;8.530;2022-10-17T11:35:46;32.90;99.90
46336;DHT22;31365;48.858;8.530;2022-10-17T11:38:20;32.90;99.90
46336;DHT22;31365;48.858;8.530;2022-10-17T11:40:56;32.80;99.80
46336;DHT22;31365;48.858;8.530;2022-10-17T11:43:27;32.70;97.80
46336;DHT22;31365;48.858;8.530;2022-10-17T11:46:00;32.30;96.80
46336;DHT22;31365;48.858;8.530;2022-10-17T11:48:34;32.10;96.30
46336;DHT22;31365;48.858;8.530;2022-10-17T11:51:08;31.90;95.90
46336;DHT22;31365;48.858;8.530;2022-10-17T11:54:01;31.90;96.40
46336;DHT22;31365;48.858;8.530;2022-10-17T11:56:39;32.30;96.10
46336;DHT22;31365;48.858;8.530;2022-10-17T11:59:31;32.80;95.30
46336;DHT22;31365;48.858;8.530;2022-10-17T12:02:18;33.00;94.00
46336;DHT22;31365;48.858;8.530;2022-10-17T12:04:57;33.00;94.00
46336;DHT22;31365;48.858;8.530;2022-10-17T12:07:35;33.30;93.30
46336;DHT22;31365;48.858;8.530;2022-10-17T12:10:17;33.30;92.80
46336;DHT22;31365;48.858;8.530;2022-10-17T12:12:51;33.40;92.30
46336;DHT22;31365;48.858;8.530;2022-10-17T12:15:26;33.70;91.30
46336;DHT22;31365;48.858;8.530;2022-10-17T12:17:57;33.50;91.10
46336;DHT22;31365;48.858;8.530;2022-10-17T12:20:34;33.60;90.80
46336;DHT22;31365;48.858;8.530;2022-10-17T12:23:05;33.70;90.70
46336;DHT22;31365;48.858;8.530;2022-10-17T12:25:49;33.80;90.30
46336;DHT22;31365;48.858;8.530;2022-10-17T12:28:25;34.30;89.70
46336;DHT22;31365;48.858;8.530;2022-10-17T12:30:56;34.40;87.40
46336;DHT22;31365;48.858;8.530;2022-10-17T12:33:29;34.70;87.60
46336;DHT22;31365;48.858;8.530;2022-10-17T12:42:31;34.20;85.90
46336;DHT22;31365;48.858;8.530;2022-10-17T12:45:00;34.30;84.20
46336;DHT22;31365;48.858;8.530;2022-10-17T12:47:36;34.40;83.80
46336;DHT22;31365;48.858;8.530;2022-10-17T12:53:10;34.90;82.60
46336;DHT22;31365;48.858;8.530;2022-10-17T12:55:46;34.90;81.90
46336;DHT22;31365;48.858;8.530;2022-10-17T12:58:19;34.80;81.40
46336;DHT22;31365;48.858;8.530;2022-10-17T13:00:48;34.50;81.20
46336;DHT22;31365;48.858;8.530;2022-10-17T13:03:41;34.30;81.50
46336;DHT22;31365;48.858;8.530;2022-10-17T13:06:11;33.90;82.90
46336;DHT22;31365;48.858;8.530;2022-10-17T13:08:46;33.90;83.60
46336;DHT22;31365;48.858;8.530;2022-10-17T13:11:23;33.90;83.00
46336;DHT22;31365;48.858;8.530;2022-10-17T13:13:56;34.00;81.40
46336;DHT22;31365;48.858;8.530;2022-10-17T13:16:26;34.10;81.40
46336;DHT22;31365;48.858;8.530;2022-10-17T13:18:55;34.70;80.30
46336;DHT22;31365;48.858;8.530;2022-10-17T13:21:23;35.20;80.20
46336;DHT22;31365;48.858;8.530;2022-10-17T13:23:52;35.00;79.60
46336;DHT22;31365;48.858;8.530;2022-10-17T13:26:21;34.90;80.40
46336;DHT22;31365;48.858;8.530;2022-10-17T13:29:04;35.00;78.40
46336;DHT22;31365;48.858;8.530;2022-10-17T13:31:37;34.40;80.40
46336;DHT22;31365;48.858;8.530;2022-10-17T13:34:14;34.70;80.10
46336;DHT22;31365;48.858;8.530;2022-10-17T13:36:45;34.60;78.20
46336;DHT22;31365;48.858;8.530;2022-10-17T13:39:15;34.80;78.90
46336;DHT22;31365;48.858;8.530;2022-10-17T13:42:05;35.20;77.60
46336;DHT22;31365;48.858;8.530;2022-10-17T13:44:46;35.30;77.10
46336;DHT22;31365;48.858;8.530;2022-10-17T13:47:21;35.10;77.70
46336;DHT22;31365;48.858;8.530;2022-10-17T13:49:50;35.10;78.10
46336;DHT22;31365;48.858;8.530;2022-10-17T13:52:22;35.00;77.10
46336;DHT22;31365;48.858;8.530;2022-10-17T13:54:54;35.10;77.60
46336;DHT22;31365;48.858;8.530;2022-10-17T13:57:23;35.20;76.60
46336;DHT22;31365;48.858;8.530;2022-10-17T13:59:56;34.90;76.30
46336;DHT22;31365;48.858;8.530;2022-10-17T14:02:27;34.70;76.80
46336;DHT22;31365;48.858;8.530;2022-10-17T14:05:01;34.60;74.70
46336;DHT22;31365;48.858;8.530;2022-10-17T14:07:49;34.40;76.30
46336;DHT22;31365;48.858;8.530;2022-10-17T14:10:39;34.20;76.80
46336;DHT22;31365;48.858;8.530;2022-10-17T14:13:26;33.40;78.00
46336;DHT22;31365;48.858;8.530;2022-10-17T14:15:58;32.60;80.20
46336;DHT22;31365;48.858;8.530;2022-10-17T14:18:29;31.70;82.10
46336;DHT22;31365;48.858;8.530;2022-10-17T14:21:03;30.60;84.60
46336;DHT22;31365;48.858;8.530;2022-10-17T14:24:10;29.70;87.80
46336;DHT22;31365;48.858;8.530;2022-10-17T14:26:46;28.70;89.30
46336;DHT22;31365;48.858;8.530;2022-10-17T14:29:22;27.90;90.70
46336;DHT22;31365;48.858;8.530;2022-10-17T14:31:57;27.30;91.30
46336;DHT22;31365;48.858;8.530;2022-10-17T14:34:29;27.00;92.00
46336;DHT22;31365;48.858;8.530;2022-10-17T14:37:01;26.60;92.60
46336;DHT22;31365;48.858;8.530;2022-10-17T14:39:35;26.20;92.90
46336;DHT22;31365;48.858;8.530;2022-10-17T14:42:04;25.90;93.10
46336;DHT22;31365;48.858;8.530;2022-10-17T14:44:33;25.70;93.60
46336;DHT22;31365;48.858;8.530;2022-10-17T14:47:05;25.50;93.80
46336;DHT22;31365;48.858;8.530;2022-10-17T14:50:03;25.30;94.40
46336;DHT22;31365;48.858;8.530;2022-10-17T14:52:33;25.10;95.30
46336;DHT22;31365;48.858;8.530;2022-10-17T14:55:20;24.90;95.70
46336;DHT22;31365;48.858;8.530;2022-10-17T14:57:50;24.70;96.20
46336;DHT22;31365;48.858;8.530;2022-10-17T15:00:18;24.40;97.10
46336;DHT22;31365;48.858;8.530;2022-10-17T15:02:50;24.30;97.80
46336;DHT22;31365;48.858;8.530;2022-10-17T15:05:19;24.20;98.50
46336;DHT22;31365;48.858;8.530;2022-10-17T15:07:49;23.90;98.80
46336;DHT22;31365;48.858;8.530;2022-10-17T15:10:25;23.80;99.10
46336;DHT22;31365;48.858;8.530;2022-10-17T15:12:58;23.70;99.50
46336;DHT22;31365;48.858;8.530;2022-10-17T15:15:46;23.60;99.80
46336;DHT22;31365;48.858;8.530;2022-10-17T15:18:18;23.50;99.90
46336;DHT22;31365;48.858;8.530;2022-10-17T15:20:47;23.40;99.90
46336;DHT22;31365;48.858;8.530;2022-10-17T15:23:30;23.40;99.90
46336;DHT22;31365;48.858;8.530;2022-10-17T15:25:59;23.20;99.90
46336;DHT22;31365;48.858;8.530;2022-10-17T15:28:27;23.20;99.90
46336;DHT22;31365;48.858;8.530;2022-10-17T15:30:55;23.10;99.90
46336;DHT22;31365;48.858;8.530;2022-10-17T15:33:25;23.10;99.90
46336;DHT22;31365;48.858;8.530;2022-10-17T15:35:53;22.90;99.90
46336;DHT22;31365;48.858;8.530;2022-10-17T15:38:27;22.90;99.90
46336;DHT22;31365;48.858;8.530;2022-10-17T15:40:55;22.90;99.90
46336;DHT22;31365;48.858;8.530;2022-10-17T15:43:24;22.70;99.90
46336;DHT22;31365;48.858;8.530;2022-10-17T15:45:52;22.60;99.90
46336;DHT22;31365;48.858;8.530;2022-10-17T15:48:25;22.60;99.90
46336;DHT22;31365;48.858;8.530;2022-10-17T15:50:58;22.50;99.90
46336;DHT22;31365;48.858;8.530;2022-10-17T15:53:26;22.60;99.90
46336;DHT22;31365;48.858;8.530;2022-10-17T15:55:55;22.60;99.90
46336;DHT22;31365;48.858;8.530;2022-10-17T15:58:23;22.60;99.90
46336;DHT22;31365;48.858;8.530;2022-10-17T16:00:54;22.60;99.90
46336;DHT22;31365;48.858;8.530;2022-10-17T16:03:22;22.40;99.90
46336;DHT22;31365;48.858;8.530;2022-10-17T16:05:52;22.30;99.90
46336;DHT22;31365;48.858;8.530;2022-10-17T16:08:20;22.20;99.90
46336;DHT22;31365;48.858;8.530;2022-10-17T16:10:48;22.20;99.90
46336;DHT22;31365;48.858;8.530;2022-10-17T16:13:20;22.00;99.90
46336;DHT22;31365;48.858;8.530;2022-10-17T16:15:50;22.00;99.90
46336;DHT22;31365;48.858;8.530;2022-10-17T16:18:18;21.90;99.90
46336;DHT22;31365;48.858;8.530;2022-10-17T16:20:47;21.60;99.90
46336;DHT22;31365;48.858;8.530;2022-10-17T16:23:16;21.50;99.90
46336;DHT22;31365;48.858;8.530;2022-10-17T16:25:44;21.30;99.90
46336;DHT22;31365;48.858;8.530;2022-10-17T16:28:13;21.20;99.90